createdAt,value
2019-03-16T00:05:01.728Z,66.9
2019-03-16T00:09:51.122Z,65.9
2019-03-16T00:14:51.155Z,66.7
2019-03-16T00:19:51.158Z,66.1
2019-03-16T00:24:51.102Z,66.8
2019-03-16T00:29:51.128Z,66.4
2019-03-16T00:34:51.112Z,67
2019-03-16T00:39:51.089Z,67.3
2019-03-16T00:44:51.080Z,59.6
2019-03-16T00:49:51.106Z,58.8
2019-03-16T00:54:51.103Z,58.4
2019-03-16T00:59:51.090Z,59.1
2019-03-16T01:04:51.096Z,61
2019-03-16T01:09:51.100Z,64.7
2019-03-16T01:14:51.048Z,65.3
2019-03-16T01:19:51.035Z,65.9
2019-03-16T01:24:51.075Z,66.8
2019-03-16T01:29:51.073Z,67.8
2019-03-16T01:34:51.030Z,68
2019-03-16T01:39:51.033Z,68.4
2019-03-16T01:44:51.086Z,60.9
2019-03-16T01:49:51.034Z,59.9
2019-03-16T01:54:51.049Z,64.6
2019-03-16T01:59:51.024Z,66.8
2019-03-16T02:04:50.981Z,67.2
2019-03-16T02:09:51.035Z,68.1
2019-03-16T02:14:51.009Z,68.1
2019-03-16T02:19:51.013Z,69
2019-03-16T02:24:51.015Z,69.7
2019-03-16T02:29:51.020Z,69.2
2019-03-16T02:34:51.033Z,69.1
2019-03-16T02:39:50.964Z,69.2
2019-03-16T02:44:51.084Z,69.5
2019-03-16T02:49:51.004Z,70.2
2019-03-16T02:54:50.974Z,65.9
2019-03-16T02:59:50.948Z,62.9
2019-03-16T03:04:50.971Z,64
2019-03-16T03:09:50.956Z,66.7
2019-03-16T03:14:50.926Z,68.8
2019-03-16T03:19:50.976Z,68.7
2019-03-16T03:24:50.971Z,69.6
2019-03-16T03:29:50.945Z,70.6
2019-03-16T03:34:50.966Z,70.7
2019-03-16T03:39:50.948Z,70.5
2019-03-16T03:44:50.909Z,64.9
2019-03-16T03:49:50.911Z,63.5
2019-03-16T03:54:50.947Z,66.2
2019-03-16T03:59:50.901Z,68.1
2019-03-16T04:04:50.857Z,69.6
2019-03-16T04:09:50.917Z,70
2019-03-16T04:14:51.054Z,70.3
2019-03-16T04:19:50.899Z,71.1
2019-03-16T04:24:50.887Z,70.5
2019-03-16T04:29:50.903Z,70
2019-03-16T04:34:50.863Z,70.6
2019-03-16T04:39:50.939Z,71.2
2019-03-16T04:44:50.829Z,70.4
2019-03-16T04:49:50.876Z,70.8
2019-03-16T04:54:50.846Z,71.1
2019-03-16T04:59:50.790Z,68.2
2019-03-16T05:04:50.856Z,64.5
2019-03-16T05:09:50.787Z,65.7
2019-03-16T05:14:50.817Z,68.1
2019-03-16T05:19:50.816Z,69.3
2019-03-16T05:24:50.820Z,69.9
2019-03-16T05:29:50.754Z,70.3
2019-03-16T05:34:57.122Z,70.3
2019-03-16T05:39:50.748Z,70.1
2019-03-16T05:44:50.757Z,70.9
2019-03-16T05:49:50.894Z,70.7
2019-03-16T05:54:50.729Z,68
2019-03-16T05:59:50.834Z,65.1
2019-03-16T06:04:50.773Z,66.1
2019-03-16T06:09:50.726Z,68.9
2019-03-16T06:14:50.715Z,65.9
2019-03-16T06:19:50.744Z,66.1
2019-03-16T06:24:50.734Z,67.8
2019-03-16T06:29:50.723Z,68.5
2019-03-16T06:34:50.850Z,68.7
2019-03-16T06:39:50.714Z,69.3
2019-03-16T06:44:50.693Z,70
2019-03-16T06:49:50.720Z,70.3
2019-03-16T06:54:50.722Z,70.2
2019-03-16T06:59:50.667Z,70.4
2019-03-16T07:04:50.707Z,70.6
2019-03-16T07:09:50.746Z,70.6
2019-03-16T07:14:50.675Z,70.7
2019-03-16T07:19:50.674Z,70.6
2019-03-16T07:24:52.023Z,70.8
2019-03-16T07:29:50.635Z,68.1
2019-03-16T07:34:50.650Z,66.2
2019-03-16T07:39:50.665Z,66.5
2019-03-16T07:44:50.640Z,68.4
2019-03-16T07:49:50.613Z,69.5
2019-03-16T07:54:50.640Z,70.7
2019-03-16T07:59:50.602Z,71.4
2019-03-16T08:04:50.615Z,71.3
2019-03-16T08:09:50.672Z,71.6
2019-03-16T08:14:50.765Z,72.3
2019-03-16T08:19:50.678Z,72.2
2019-03-16T08:24:50.645Z,72.3
2019-03-16T08:29:50.606Z,72.5
2019-03-16T08:34:50.573Z,73.3
2019-03-16T08:39:50.575Z,70.7
2019-03-16T08:44:50.648Z,71.5
2019-03-16T08:49:50.539Z,72.7
2019-03-16T08:54:50.560Z,73.6
2019-03-16T08:59:50.535Z,73.4
2019-03-16T09:04:50.534Z,73.9
2019-03-16T09:09:50.572Z,74.6
2019-03-16T09:14:50.577Z,74.7
2019-03-16T09:19:50.516Z,75.1
2019-03-16T09:24:50.522Z,74.9
2019-03-16T09:29:50.503Z,75.1
2019-03-16T09:34:50.494Z,75.5
2019-03-16T09:39:50.472Z,75.2
2019-03-16T09:44:51.281Z,75.8
2019-03-16T09:49:51.255Z,76
2019-03-16T09:54:51.216Z,74.9
2019-03-16T09:59:51.252Z,74.8
2019-03-16T10:04:51.231Z,78
2019-03-16T10:09:51.203Z,76.1
2019-03-16T10:14:51.233Z,76.5
2019-03-16T10:19:51.249Z,76.7
2019-03-16T10:24:51.208Z,76.9
2019-03-16T10:29:51.218Z,76.6
2019-03-16T10:34:51.199Z,76.5
2019-03-16T10:39:51.159Z,76.5
2019-03-16T10:44:51.163Z,76.6
2019-03-16T10:49:51.183Z,76.9
2019-03-16T10:54:51.204Z,76.8
2019-03-16T10:59:51.173Z,78
2019-03-16T11:04:51.152Z,78
2019-03-16T11:09:51.125Z,78.8
2019-03-16T11:14:51.204Z,79
2019-03-16T11:19:51.151Z,78.7
2019-03-16T11:24:51.145Z,78.9
2019-03-16T11:29:51.249Z,79.2
2019-03-16T11:34:51.125Z,79
2019-03-16T11:39:51.087Z,79.2
2019-03-16T11:44:51.201Z,78.7
2019-03-16T11:49:51.110Z,79.3
2019-03-16T11:54:52.346Z,78.9
2019-03-16T11:59:51.107Z,79
2019-03-16T12:04:51.089Z,79.1
2019-03-16T12:09:51.114Z,79.7
2019-03-16T12:14:51.102Z,79.8
2019-03-16T12:19:51.070Z,79.6
2019-03-16T12:24:51.050Z,79.7
2019-03-16T12:29:51.065Z,79.7
2019-03-16T12:34:51.068Z,80.2
2019-03-16T12:39:51.052Z,79.8
2019-03-16T12:44:51.063Z,79.7
2019-03-16T12:49:51.071Z,79.5
2019-03-16T12:54:51.032Z,79.1
2019-03-16T12:59:51.063Z,79.2
2019-03-16T13:04:51.018Z,78.7
2019-03-16T13:09:51.015Z,77.3
2019-03-16T13:14:51.033Z,77.5
2019-03-16T13:19:51.047Z,77.6
2019-03-16T13:24:50.983Z,79.1
2019-03-16T13:29:59.581Z,77.1
2019-03-16T13:34:51.024Z,76.3
2019-03-16T13:39:50.975Z,75.2
2019-03-16T13:44:50.994Z,75.7
2019-03-16T13:49:50.971Z,76
2019-03-16T13:54:51.595Z,76.2
2019-03-16T13:59:50.977Z,76.9
2019-03-16T14:04:51.025Z,77.2
2019-03-16T14:09:50.965Z,77.8
2019-03-16T14:14:50.945Z,77.8
2019-03-16T14:19:50.946Z,77.1
2019-03-16T14:24:50.923Z,77
2019-03-16T14:29:50.938Z,77.1
2019-03-16T14:34:51.969Z,77.7
2019-03-16T14:39:51.929Z,78.4
2019-03-16T14:44:50.905Z,78.5
2019-03-16T14:49:51.002Z,78.7
2019-03-16T14:54:50.915Z,78.8
2019-03-16T14:59:50.908Z,79.6
2019-03-16T15:04:50.894Z,80
2019-03-16T15:09:50.881Z,79.3
2019-03-16T15:14:50.909Z,79.3
2019-03-16T15:19:50.835Z,79.2
2019-03-16T15:24:50.887Z,78.5
2019-03-16T15:29:50.839Z,78.1
2019-03-16T15:34:50.875Z,77.6
2019-03-16T15:39:50.858Z,77.5
2019-03-16T15:44:50.813Z,77.8
2019-03-16T15:49:50.825Z,78
2019-03-16T15:54:50.859Z,79
2019-03-16T15:59:50.791Z,78.3
2019-03-16T16:04:50.803Z,78.7
2019-03-16T16:09:50.848Z,78.9
2019-03-16T16:14:50.831Z,79.2
2019-03-16T16:19:50.813Z,79.6
2019-03-16T16:24:50.821Z,79.6
2019-03-16T16:29:50.798Z,79.7
2019-03-16T16:34:50.751Z,79.9
2019-03-16T16:39:50.818Z,80.1
2019-03-16T16:44:50.791Z,80.2
2019-03-16T16:49:50.845Z,80
2019-03-16T16:54:50.751Z,80.1
2019-03-16T16:59:50.781Z,80.1
2019-03-16T17:04:50.795Z,80.5
2019-03-16T17:09:50.762Z,80.3
2019-03-16T17:14:50.884Z,80.8
2019-03-16T17:19:50.734Z,80.5
2019-03-16T17:24:50.713Z,80.2
2019-03-16T17:29:50.774Z,80.3
2019-03-16T17:34:50.732Z,80.3
2019-03-16T17:39:50.721Z,80.4
2019-03-16T17:44:51.428Z,79.9
2019-03-16T17:49:50.690Z,80.1
2019-03-16T17:54:50.705Z,79.7
2019-03-16T17:59:50.693Z,79.8
2019-03-16T18:04:50.674Z,79.5
2019-03-16T18:09:50.643Z,79.6
2019-03-16T18:14:50.711Z,79.7
2019-03-16T18:19:50.727Z,79.4
2019-03-16T18:24:50.677Z,79.3
2019-03-16T18:29:50.640Z,79.7
2019-03-16T18:34:50.671Z,79.3
2019-03-16T18:39:50.667Z,79.5
2019-03-16T18:44:50.590Z,79.6
2019-03-16T18:49:50.664Z,79.9
2019-03-16T18:54:50.594Z,79.8
2019-03-16T18:59:50.626Z,79.7
2019-03-16T19:04:50.604Z,80.1
2019-03-16T19:09:53.915Z,80.4
2019-03-16T19:14:50.583Z,80.6
2019-03-16T19:19:50.593Z,80.8
2019-03-16T19:24:50.622Z,80.6
2019-03-16T19:29:50.669Z,80.3
2019-03-16T19:34:50.672Z,80.9
2019-03-16T19:39:50.548Z,81.6
2019-03-16T19:44:50.603Z,82
2019-03-16T19:49:50.572Z,81.3
2019-03-16T19:54:50.653Z,81.6
2019-03-16T19:59:50.588Z,81.6
2019-03-16T20:04:50.564Z,81.8
2019-03-16T20:09:50.537Z,81.7
2019-03-16T20:14:50.555Z,81.6
2019-03-16T20:19:50.521Z,81.7
2019-03-16T20:24:50.510Z,81.9
2019-03-16T20:29:50.539Z,81.8
2019-03-16T20:34:50.587Z,82.5
2019-03-16T20:39:50.517Z,81.9
2019-03-16T20:44:50.572Z,81.6
2019-03-16T20:49:50.498Z,81.7
2019-03-16T20:54:50.484Z,81.8
2019-03-16T20:59:50.511Z,81.7
2019-03-16T21:04:50.510Z,81.7
2019-03-16T21:09:50.453Z,81.9
2019-03-16T21:14:50.495Z,81.6
2019-03-16T21:19:50.467Z,81.6
2019-03-16T21:24:50.469Z,81.4
2019-03-16T21:29:50.468Z,81.5
2019-03-16T21:34:50.433Z,81.8
2019-03-16T21:39:50.416Z,81.6
2019-03-16T21:44:50.414Z,81.3
2019-03-16T21:49:50.470Z,80.7
2019-03-16T21:54:50.403Z,81
2019-03-16T21:59:50.401Z,80.8
2019-03-16T22:04:51.151Z,80.3
2019-03-16T22:09:51.159Z,81
2019-03-16T22:14:51.115Z,79.9
2019-03-16T22:19:51.153Z,79.9
2019-03-16T22:24:51.121Z,79.8
2019-03-16T22:29:51.122Z,79.7
2019-03-16T22:34:51.122Z,78.2
2019-03-16T22:39:51.081Z,78
2019-03-16T22:44:51.130Z,78.3
2019-03-16T22:49:51.120Z,78.9
2019-03-16T22:54:51.052Z,78.8
2019-03-16T22:59:51.098Z,78.8
2019-03-16T23:04:51.053Z,78.8
2019-03-16T23:09:51.087Z,78.8
2019-03-16T23:14:51.116Z,78.9
2019-03-16T23:19:51.044Z,77.7
2019-03-16T23:24:51.042Z,77.1
2019-03-16T23:29:51.051Z,77.2
2019-03-16T23:34:51.043Z,77.7
2019-03-16T23:39:51.047Z,78.2
2019-03-16T23:44:51.076Z,77.5
2019-03-16T23:49:51.041Z,77.4
2019-03-16T23:54:51.028Z,77.1
2019-03-16T23:59:51.046Z,75.3
